DAAG

Algiers/Houari Boumediene Airport

Airport
ICAO code
DAAG
IATA Code
ALG
Summary
ICAO Region
AFI
ICAO Territory
Location

Dar-El-Beida, Boumerdes

Serving
Algiers
Elevation
82 ft
Coordinates
36° 41' 28" N , 3° 12' 55" E
KCC
Csa
Airport WX
Fog
Metar
Observation
DAAG 171800Z 32007KT 9999 FEW026 28/18 Q1010
Station
Dar-El-Beida
Date/Time
2022-08-17 18:00:00
Wind direction
320°
Wind speed
07 kts
Lowest cloud amount
few clouds
Temperature
28°C
Dew point
18°C
Humidity
54%
QNH
1010 hPa
Weather condition
n/a

Description

Houari Boumediene Airport, also known as Algiers Airport, is an international airport serving Algiers, the capital of Algeria. It is located 9.1 nm east southeast of the city.

Climatology

Dry-summer subtropical ”Mediterranean" climate (Köppen climate classification Csa) - characterized by hot, dry summers and mild winters. During the summer, subtropical high pressure cells dominate, making rainfall unlikely except for the occasional thunderstorm. In the winter, periodic storms bring rain (snow at higher elevations).

Runways

Designator Length Width Surface Rops
5/23 3500 60 ASP Yes/Yes
9/27 3500 45 ASP Yes/Yes

Airport map

Aerial View

SKYbrary Partners:

Safety knowledge contributed by: